createdAt,value
2023-03-29T00:03:45.695Z,75.43
2023-03-29T00:09:04.860Z,65.73
2023-03-29T00:14:07.620Z,70.07
2023-03-29T00:19:10.571Z,64.60
2023-03-29T00:24:13.018Z,62.93
2023-03-29T00:29:16.117Z,78.20
2023-03-29T00:34:18.714Z,75.20
2023-03-29T00:39:21.965Z,75.23
2023-03-29T00:44:55.355Z,70.67
2023-03-29T00:50:02.845Z,65.47
2023-03-29T00:55:11.103Z,71.63
2023-03-29T01:00:20.973Z,89.13
2023-03-29T01:05:32.300Z,88.07
2023-03-29T01:10:40.605Z,95.57
2023-03-29T01:15:46.351Z,95.80
2023-03-29T01:21:15.384Z,85.27
2023-03-29T01:26:40.957Z,73.83
2023-03-29T01:31:52.908Z,81.63
2023-03-29T01:37:04.561Z,86.37
2023-03-29T01:42:13.244Z,81.50
2023-03-29T01:47:37.874Z,78.47
2023-03-29T01:53:05.482Z,84.63
2023-03-29T01:58:11.982Z,68.93
2023-03-29T02:03:17.600Z,75.13
2023-03-29T02:08:23.195Z,67.90
2023-03-29T02:13:26.078Z,64.10
2023-03-29T02:18:30.110Z,65.30
2023-03-29T02:23:45.469Z,59.00
2023-03-29T02:28:48.796Z,59.33
2023-03-29T02:34:16.073Z,57.33
2023-03-29T02:39:19.811Z,53.97
2023-03-29T02:44:31.316Z,54.30
2023-03-29T02:49:33.979Z,57.40
2023-03-29T02:54:43.080Z,64.63
2023-03-29T02:59:45.737Z,59.63
2023-03-29T03:04:48.460Z,60.07
2023-03-29T03:09:52.033Z,45.40
2023-03-29T03:14:54.742Z,50.50
2023-03-29T03:19:57.273Z,51.77
2023-03-29T03:24:59.750Z,43.37
2023-03-29T03:30:05.431Z,46.37
2023-03-29T03:35:26.406Z,53.93
2023-03-29T03:40:29.053Z,47.57
2023-03-29T03:45:31.835Z,42.90
2023-03-29T03:50:49.879Z,38.97
2023-03-29T03:55:56.007Z,41.57
2023-03-29T04:01:03.201Z,40.27
2023-03-29T04:06:23.138Z,42.93
2023-03-29T04:11:59.592Z,44.87
2023-03-29T04:17:02.313Z,40.70
2023-03-29T04:22:23.545Z,40.33
2023-03-29T04:27:26.277Z,35.57
2023-03-29T04:32:29.375Z,35.07
2023-03-29T04:37:40.299Z,36.40
2023-03-29T04:42:45.829Z,39.83
2023-03-29T04:47:48.523Z,35.83
2023-03-29T04:52:54.146Z,34.60
2023-03-29T04:57:58.306Z,39.13
2023-03-29T05:03:07.548Z,44.53
2023-03-29T05:08:14.615Z,45.57
2023-03-29T05:13:37.782Z,51.10
2023-03-29T05:18:40.786Z,44.23
2023-03-29T05:23:43.517Z,31.57
2023-03-29T05:28:52.340Z,45.90
2023-03-29T05:33:55.208Z,55.10
2023-03-29T05:38:59.836Z,44.57
2023-03-29T05:44:04.150Z,42.43
2023-03-29T05:49:07.338Z,36.77
2023-03-29T05:54:28.923Z,44.40
2023-03-29T05:59:33.892Z,40.23
2023-03-29T06:04:37.473Z,50.10
2023-03-29T06:09:55.561Z,53.30
2023-03-29T06:15:03.967Z,41.23
2023-03-29T06:20:33.114Z,41.70
2023-03-29T06:25:43.240Z,41.90
2023-03-29T06:30:46.804Z,42.20
2023-03-29T06:35:50.573Z,41.27
2023-03-29T06:41:03.953Z,47.93
2023-03-29T06:46:23.453Z,46.30
2023-03-29T06:51:31.379Z,50.60
2023-03-29T06:56:34.528Z,46.27
2023-03-29T07:01:40.168Z,32.27
2023-03-29T07:07:01.649Z,30.80
2023-03-29T07:12:07.556Z,27.70
2023-03-29T07:17:10.667Z,29.83
2023-03-29T07:22:16.436Z,26.10
2023-03-29T07:27:24.479Z,22.60
2023-03-29T07:32:28.194Z,20.90
2023-03-29T07:37:46.434Z,22.17
2023-03-29T07:42:54.189Z,21.87
2023-03-29T07:47:59.564Z,18.60
2023-03-29T07:53:09.103Z,16.40
2023-03-29T07:58:11.910Z,24.43
2023-03-29T08:03:15.415Z,15.20
2023-03-29T08:08:18.404Z,22.50
2023-03-29T08:13:32.282Z,25.17
2023-03-29T08:18:57.655Z,25.80
2023-03-29T08:24:06.259Z,17.33
2023-03-29T08:29:23.286Z,17.20
2023-03-29T08:34:25.964Z,17.73
2023-03-29T08:39:43.906Z,16.90
2023-03-29T08:45:30.171Z,17.23
2023-03-29T08:50:48.110Z,18.23
2023-03-29T08:55:53.089Z,14.40
2023-03-29T09:01:11.659Z,12.50
2023-03-29T09:06:27.559Z,13.57
2023-03-29T09:11:59.947Z,13.77
2023-03-29T09:17:02.869Z,13.00
2023-03-29T09:22:05.651Z,14.17
2023-03-29T09:27:27.385Z,10.10
2023-03-29T09:33:08.779Z,8.73
2023-03-29T09:38:30.166Z,10.33
2023-03-29T09:43:37.932Z,7.73
2023-03-29T09:48:46.528Z,10.67
2023-03-29T09:53:49.861Z,10.03
2023-03-29T09:59:12.396Z,10.97
2023-03-29T10:04:16.890Z,10.50
2023-03-29T10:09:28.997Z,9.60
2023-03-29T10:14:46.520Z,7.93
2023-03-29T10:20:01.457Z,6.00
2023-03-29T10:25:13.688Z,6.53
2023-03-29T10:30:25.460Z,12.57
2023-03-29T10:35:34.147Z,11.23
2023-03-29T10:40:43.415Z,9.90
2023-03-29T10:45:53.977Z,8.23
2023-03-29T10:51:02.060Z,7.70
2023-03-29T10:56:20.080Z,9.60
2023-03-29T11:02:00.320Z,8.87
2023-03-29T11:07:08.696Z,9.07
2023-03-29T11:12:30.221Z,7.97
2023-03-29T11:18:16.234Z,6.80
2023-03-29T11:24:00.992Z,13.70
2023-03-29T11:29:18.940Z,8.53
2023-03-29T11:34:53.311Z,6.00
2023-03-29T11:40:36.147Z,9.33
2023-03-29T11:45:45.177Z,6.47
2023-03-29T11:51:19.762Z,8.13
2023-03-29T11:56:38.248Z,10.77
2023-03-29T12:02:05.629Z,7.20
2023-03-29T12:07:19.636Z,8.97
2023-03-29T12:12:46.120Z,14.37
2023-03-29T12:18:32.218Z,7.73
2023-03-29T12:23:34.817Z,8.63
2023-03-29T12:29:14.381Z,11.80
2023-03-29T12:34:36.707Z,5.97
2023-03-29T12:40:19.299Z,10.53
2023-03-29T12:45:48.456Z,11.17
2023-03-29T12:50:54.276Z,11.87
2023-03-29T12:56:02.959Z,14.70
2023-03-29T13:01:21.490Z,13.63
2023-03-29T13:06:33.875Z,20.03
2023-03-29T13:11:42.716Z,14.27
2023-03-29T13:16:45.412Z,10.73
2023-03-29T13:22:00.490Z,9.30
2023-03-29T13:27:06.006Z,10.03
2023-03-29T13:32:39.206Z,10.47
2023-03-29T13:37:58.182Z,10.13
2023-03-29T13:43:19.244Z,18.40
2023-03-29T13:48:30.063Z,9.17
2023-03-29T13:53:38.026Z,8.27
2023-03-29T13:58:54.139Z,9.77
2023-03-29T14:03:57.658Z,10.40
2023-03-29T14:09:07.293Z,6.87
2023-03-29T14:14:10.698Z,8.33
2023-03-29T14:19:17.562Z,10.20
2023-03-29T14:24:27.702Z,8.00
2023-03-29T14:29:34.311Z,8.00
2023-03-29T14:34:37.398Z,8.07
2023-03-29T14:39:41.173Z,10.63
2023-03-29T14:44:44.893Z,6.30
2023-03-29T14:49:47.596Z,6.23
2023-03-29T14:54:53.285Z,7.20
2023-03-29T15:00:00.748Z,7.53
2023-03-29T15:05:24.928Z,8.63
2023-03-29T15:10:31.656Z,13.17
2023-03-29T15:15:38.355Z,6.80
2023-03-29T15:20:41.988Z,7.43
2023-03-29T15:25:57.218Z,9.43
2023-03-29T15:31:19.170Z,7.90
2023-03-29T15:36:22.552Z,8.87
2023-03-29T15:41:26.279Z,6.43
2023-03-29T15:46:29.221Z,10.83
2023-03-29T15:51:32.012Z,19.33
2023-03-29T15:56:40.311Z,12.20
2023-03-29T16:01:44.750Z,7.33
2023-03-29T16:06:50.138Z,17.07
2023-03-29T16:11:52.682Z,11.17
2023-03-29T16:16:59.405Z,16.97
2023-03-29T16:22:07.158Z,9.67
2023-03-29T16:27:09.737Z,10.30
2023-03-29T16:32:12.263Z,7.03
2023-03-29T16:37:14.832Z,7.13
2023-03-29T16:47:20.238Z,12.83
2023-03-29T16:52:23.286Z,9.57
2023-03-29T16:57:26.727Z,3.47
2023-03-29T17:02:29.395Z,6.17
2023-03-29T17:07:32.455Z,4.77
2023-03-29T17:12:36.176Z,10.63
2023-03-29T17:17:38.978Z,7.23
2023-03-29T17:22:41.773Z,6.93
2023-03-29T17:27:45.468Z,10.70
2023-03-29T17:32:48.559Z,6.50
2023-03-29T17:37:51.218Z,13.97
2023-03-29T17:42:54.267Z,7.00
2023-03-29T17:47:57.202Z,17.00
2023-03-29T17:52:59.763Z,20.27
2023-03-29T17:58:02.413Z,9.70
2023-03-29T18:03:05.269Z,12.80
2023-03-29T18:08:08.734Z,20.70
2023-03-29T18:13:13.936Z,21.23
2023-03-29T18:18:16.956Z,20.73
2023-03-29T18:23:19.880Z,33.63
2023-03-29T18:28:25.230Z,49.57
2023-03-29T18:33:28.746Z,51.07
2023-03-29T18:38:35.302Z,58.13
2023-03-29T18:43:39.883Z,56.03
2023-03-29T18:48:42.664Z,51.83
2023-03-29T18:53:45.226Z,51.60
2023-03-29T18:58:48.469Z,38.93
2023-03-29T19:03:51.653Z,37.50
2023-03-29T19:08:55.458Z,32.17
2023-03-29T19:13:58.029Z,30.17
2023-03-29T19:19:00.553Z,33.23
2023-03-29T19:24:05.073Z,35.03
2023-03-29T19:29:08.629Z,29.93
2023-03-29T19:34:11.316Z,29.63
2023-03-29T19:39:14.051Z,28.13
2023-03-29T19:44:16.606Z,28.33
2023-03-29T19:49:19.336Z,27.63
2023-03-29T19:54:22.060Z,32.57
2023-03-29T19:59:25.872Z,27.97
2023-03-29T20:04:28.891Z,29.77
2023-03-29T20:09:32.817Z,28.57
2023-03-29T20:14:37.944Z,15.97
2023-03-29T20:19:44.116Z,10.60
2023-03-29T20:24:46.719Z,15.20
2023-03-29T20:29:49.154Z,16.23
2023-03-29T20:34:51.741Z,9.50
2023-03-29T20:39:56.732Z,10.73
2023-03-29T20:45:00.378Z,17.83
2023-03-29T20:50:04.207Z,15.73
2023-03-29T20:55:07.326Z,21.23
2023-03-29T21:00:12.027Z,23.73
2023-03-29T21:05:15.736Z,28.17
2023-03-29T21:10:18.166Z,28.33
2023-03-29T21:15:21.056Z,24.97
2023-03-29T21:20:24.241Z,23.40
2023-03-29T21:25:26.937Z,23.37
2023-03-29T21:30:31.482Z,25.20
2023-03-29T21:35:35.622Z,20.60
2023-03-29T21:40:38.230Z,20.83
2023-03-29T21:45:40.682Z,16.77
2023-03-29T21:50:43.687Z,14.83
2023-03-29T21:55:48.959Z,15.70
2023-03-29T22:00:51.684Z,22.80
2023-03-29T22:06:02.690Z,22.97
2023-03-29T22:11:14.349Z,19.73
2023-03-29T22:16:18.726Z,21.50
2023-03-29T22:21:28.528Z,21.03
2023-03-29T22:26:32.685Z,22.30
2023-03-29T22:31:35.694Z,21.30
2023-03-29T22:36:38.539Z,23.67
2023-03-29T22:41:42.061Z,27.13
2023-03-29T22:46:44.669Z,31.90
2023-03-29T22:51:47.953Z,35.37
2023-03-29T22:56:50.525Z,31.07
2023-03-29T23:01:53.410Z,25.20
2023-03-29T23:06:56.435Z,21.70
2023-03-29T23:11:59.583Z,19.83
2023-03-29T23:17:02.475Z,12.63
2023-03-29T23:22:05.114Z,16.20
2023-03-29T23:27:07.768Z,18.87
2023-03-29T23:32:10.222Z,17.73
2023-03-29T23:37:12.710Z,19.03
2023-03-29T23:42:15.191Z,16.37
2023-03-29T23:47:17.695Z,15.17
2023-03-29T23:52:20.297Z,16.40
2023-03-29T23:57:23.004Z,17.07
